Flight Track Log - Related Links

Times and Time Zones

All times are in EDT time to prevent confusion due to time zone crossing. See the RLI811 flight status page for this flight to view local times or setup timezone preferences in your user account.

Time Position Orientation Groundspeed Altitude Reporting Facility
EDT Latitude Longitude Course Direction KTS MPH feet Rate Location/Type
Fri 03:13:51 PM 41.0167 -73.7000 180° South 154 177 2,000  Level New TRACON
Fri 03:14:51 PM 41.0333 -73.7500 294° West 127 146 3,000 952 Climbing New TRACON
Fri 03:15:57 PM 41.0667 -73.7833 323° Northwest 143 165 4,000 905 Climbing New TRACON
Fri 03:16:57 PM 41.1000 -73.8000 339° North 127 146 4,900 850 Climbing New TRACON
Fri 03:17:57 PM 41.1333 -73.8000 360° North 125 144 5,700 789 Climbing New TRACON
Fri 03:18:51 PM 41.1667 -73.8000 360° North 131 151 6,400 632 Climbing New TRACON
Fri 03:19:51 PM 41.1833 -73.7667 56° Northeast 135 155 6,900 250 Climbing New TRACON
Fri 03:20:51 PM 41.2167 -73.7333 37° Northeast 161 185 6,900  Level New TRACON
Fri 03:21:51 PM 41.2333 -73.6833 66° East 169 194 6,900  Level New TRACON
Fri 03:22:51 PM 41.2667 -73.6167 56° Northeast 175 201 6,900  Level New TRACON
Fri 03:23:51 PM 41.2833 -73.5667 66° East 180 207 6,900  Level New TRACON
Fri 03:24:51 PM 41.3000 -73.5167 66° East 181 208 6,900  Level New TRACON
Fri 03:25:51 PM 41.3333 -73.4500 56° Northeast 177 204 6,900  Level New TRACON
Fri 03:26:51 PM 41.3500 -73.3833 72° East 175 201 6,900 55 Level New TRACON
Fri 03:27:41 PM 41.3653 -73.3417 64° Northeast 174 200 7,000 51 Climbing Boston Center
Fri 03:28:48 PM 41.3864 -73.2783 66° East 174 200 7,000  Level Boston Center
Fri 03:29:49 PM 41.4078 -73.2178 65° Northeast 176 203 7,000  Level Boston Center
Fri 03:30:50 PM 41.4289 -73.1572 65° Northeast 176 203 7,000  Level Boston Center
Fri 03:31:51 PM 41.4397 -73.0964 77° East 174 200 7,000  Level Boston Center
Fri 03:32:46 PM 41.4547 -73.0411 70° East 175 201 7,000  Level Boston Center
Fri 03:33:41 PM 41.4675 -72.9886 72° East 175 201 7,000  Level Boston Center
Fri 03:34:48 PM 41.4719 -72.9167 85° East 173 199 7,000  Level Boston Center
Fri 03:35:48 PM 41.4889 -72.8558 70° East 173 199 7,000  Level Boston Center
Fri 03:36:49 PM 41.5142 -72.7978 60° Northeast 174 200 7,000  Level Boston Center
Fri 03:37:50 PM 41.5183 -72.7339 85° East 174 200 7,000  Level Boston Center
Fri 03:38:51 PM 41.5206 -72.6703 87° East 175 201 7,000  Level Boston Center
Fri 03:39:52 PM 41.5228 -72.6036 87° East 175 201 7,000  Level Boston Center
Fri 03:40:53 PM 41.5314 -72.5372 80° East 175 201 7,000  Level Boston Center
Fri 03:41:54 PM 41.5397 -72.4761 80° East 176 203 7,000  Level Boston Center
Fri 03:42:54 PM 41.5500 -72.4094 78° East 177 204 7,000  Level Boston Center
Fri 03:43:55 PM 41.5583 -72.3431 80° East 176 203 7,000  Level Boston Center
Fri 03:44:56 PM 41.5686 -72.2792 78° East 175 201 7,000  Level Boston Center
Fri 03:45:45 PM 41.5792 -72.2292 74° East 177 204 7,000  Level Boston Center
Fri 03:47:16 PM 41.5997 -72.1319 74° East 175 201 7,000  Level Boston Center
Fri 03:48:17 PM 41.6078 -72.0681 80° East 176 203 7,000  Level Boston Center
Fri 03:49:18 PM 41.6181 -72.0042 78° East 177 204 7,000  Level Boston Center
Fri 03:50:13 PM 41.6281 -71.9431 78° East 177 204 7,000  Level Boston Center
Fri 03:51:13 PM 41.6361 -71.8789 80° East 178 205 7,000 -47 Level Boston Center
Fri 03:52:20 PM 41.6525 -71.8039 74° East 178 205 6,900  Descending Boston Center
Fri 03:53:21 PM 41.6606 -71.7428 80° East 179 206 7,000 49 Climbing Boston Center
Fri 03:54:22 PM 41.6725 -71.6731 77° East 181 208 7,000 -49 Level Boston Center
Fri 03:55:23 PM 41.6803 -71.6089 81° East 183 211 6,900 -49 Descending Boston Center
Fri 03:56:24 PM 41.6736 -71.5425 98° East 181 208 6,900  Level Boston Center
Fri 03:57:18 PM 41.6711 -71.4842 93° East 180 207 6,900 50 Level Boston Center
Fri 03:58:25 PM 41.6725 -71.4092 89° East 176 203 7,000 45 Climbing Boston Center
Fri 03:59:32 PM 41.6739 -71.3339 89° East 178 205 7,000  Level Boston Center
Fri 04:00:33 PM 41.6733 -71.2700 91° East 179 206 7,000 -52 Level Boston Center
Fri 04:01:28 PM 41.6725 -71.2089 91° East 179 206 6,900 -49 Descending Boston Center
Fri 04:02:35 PM 41.6697 -71.1311 93° East 179 206 6,900 49 Level Boston Center
Fri 04:03:30 PM 41.6689 -71.0700 91° East 181 208 7,000 109 Climbing Boston Center
Fri 04:05:00 PM 41.6692 -70.9856 71° East  Level Estimated
Fri 04:12:00 PM 41.6698 -70.5916 75° East  Level Estimated
Fri 04:13:00 PM 41.7107 -70.5784 14° North  Level FlightAware
Fri 04:14:00 PM 41.7030 -70.5231 80° East  Level Estimated
Fri 04:15:00 PM 41.7397 -70.4955 29° Northeast  Level FlightAware
Fri 04:16:00 PM 41.7764 -70.4680 29° Northeast  Level FlightAware
Fri 04:17:00 PM 41.7509 -70.4232 157° South  Level Estimated
Fri 04:18:00 PM 41.7418 -70.3682 102° East  Level FlightAware
Fri 04:19:00 PM 41.7327 -70.3131 102° East  Level FlightAware
Fri 04:20:00 PM 41.7189 -70.3058 151° Southeast  Level FlightAware
Fri 04:21:00 PM 41.6822 -70.2783 151° Southeast  Level FlightAware
Fri 04:22:00 PM 41.6667 -70.2667 151° Southeast  Level FlightAware
Fri 04:23:00 PM 41.6693 -70.2804 151° Southeast  Level Estimated
Fri 04:24:00 PM 41.6693 -70.2804 151° Southeast  Level Estimated
Fri 04:25:00 PM 41.6693 -70.2804 151° Southeast  Level Estimated
Fri 04:26:00 PM 41.6693 -70.2804 151° Southeast  Level Estimated

Login

Don't have an account? Register now (free) for customized features, flight alerts, and more!